createdAt,value
2022-09-10T05:59:04.065Z,17.30
2022-09-10T06:03:59.361Z,16.70
2022-09-10T06:08:54.124Z,16.40
2022-09-10T06:14:06.704Z,16.20
2022-09-10T06:40:55.095Z,16.00
2022-09-10T06:45:49.577Z,16.10
2022-09-10T06:51:03.057Z,16.30
2022-09-10T07:08:41.157Z,17.10
2022-09-10T07:13:38.925Z,17.30
2022-09-10T07:18:33.573Z,17.50
2022-09-10T07:23:28.193Z,17.60
2022-09-10T07:28:23.796Z,17.70
2022-09-10T07:33:17.796Z,17.90
2022-09-10T07:38:17.262Z,17.90
2022-09-10T07:43:13.054Z,18.00
2022-09-10T07:48:08.375Z,18.10
2022-09-10T07:53:05.071Z,18.10
2022-09-10T07:58:00.246Z,18.10
2022-09-10T08:02:56.028Z,18.10
2022-09-10T08:07:55.241Z,18.10
2022-09-10T08:12:51.970Z,18.20
2022-09-10T08:17:48.891Z,18.20
2022-09-10T08:22:44.152Z,18.60
2022-09-10T08:54:50.574Z,20.30
2022-09-10T08:59:48.225Z,20.50
2022-09-10T09:04:48.853Z,20.60
2022-09-10T09:09:45.467Z,20.90
2022-09-10T09:14:49.983Z,21.30
2022-09-10T09:19:52.778Z,21.50
2022-09-10T09:24:56.779Z,21.70
2022-09-10T09:29:56.074Z,21.90
2022-09-10T09:34:54.657Z,22.10
2022-09-10T09:39:59.624Z,22.20
2022-09-10T09:45:00.737Z,22.40
2022-09-10T09:49:55.615Z,22.60
2022-09-10T09:55:13.764Z,22.80
2022-09-10T10:00:36.764Z,23.10
2022-09-10T10:05:31.522Z,23.50
2022-09-10T10:10:28.319Z,23.90
2022-09-10T10:15:37.651Z,24.10
2022-09-10T10:20:41.619Z,24.50
2022-09-10T10:25:42.184Z,24.80
2022-09-10T10:30:35.968Z,25.10
2022-09-10T10:35:37.827Z,25.70
2022-09-10T10:40:34.929Z,26.10
2022-09-10T10:45:51.490Z,26.30
2022-09-10T10:50:54.692Z,26.40
2022-09-10T10:55:57.348Z,26.40
2022-09-10T11:00:58.067Z,26.60
2022-09-10T11:05:56.157Z,27.00
2022-09-10T11:10:54.702Z,27.20
2022-09-10T11:15:53.736Z,27.60
2022-09-10T11:20:58.353Z,27.70
2022-09-10T11:25:59.525Z,27.60
2022-09-10T11:31:01.503Z,27.60
2022-09-10T11:36:01.536Z,27.80
2022-09-10T11:41:08.111Z,28.10
2022-09-10T11:46:07.189Z,26.80
2022-09-10T11:51:04.132Z,26.70
2022-09-10T11:56:21.517Z,26.20
2022-09-10T12:01:28.777Z,25.60
2022-09-10T12:06:32.170Z,25.00
2022-09-10T12:11:32.248Z,24.40
2022-09-10T12:16:35.404Z,24.20
2022-09-10T12:21:34.498Z,24.20
2022-09-10T12:26:28.373Z,24.80
2022-09-10T12:31:23.341Z,25.70
2022-09-10T12:36:58.435Z,25.70
2022-09-10T12:42:03.449Z,25.00
2022-09-10T12:47:40.316Z,24.60
2022-09-10T12:52:44.600Z,24.30
2022-09-10T12:57:46.061Z,24.10
2022-09-10T13:02:47.044Z,23.90
2022-09-10T13:07:44.397Z,23.70
2022-09-10T13:12:42.250Z,23.50
2022-09-10T13:17:41.679Z,23.20
2022-09-10T13:22:57.877Z,23.00
2022-09-10T13:27:51.619Z,22.90
2022-09-10T13:32:50.141Z,22.80
2022-09-10T13:38:01.674Z,22.50
2022-09-10T13:43:17.423Z,22.20
2022-09-10T13:48:15.228Z,21.90
2022-09-10T13:53:12.860Z,21.70
2022-09-10T13:58:15.072Z,21.50
2022-09-10T14:03:16.355Z,21.20
2022-09-10T14:08:14.135Z,21.10
2022-09-10T14:13:10.088Z,20.70
2022-09-10T14:18:03.852Z,20.30
2022-09-10T14:23:04.348Z,19.90
2022-09-10T14:28:24.593Z,19.30
2022-09-10T14:33:33.664Z,18.60
2022-09-10T14:38:30.206Z,18.40
2022-09-10T14:43:31.499Z,18.20
2022-09-10T14:48:37.132Z,18.10
2022-09-10T14:53:30.807Z,17.90
2022-09-10T14:58:24.328Z,17.70
2022-09-10T15:03:19.320Z,17.70
2022-09-10T15:08:12.911Z,17.60
2022-09-10T15:13:07.514Z,17.50
2022-09-10T15:18:01.277Z,17.50
2022-09-10T15:22:56.161Z,17.50
2022-09-10T15:27:49.660Z,17.50
2022-09-10T15:32:43.024Z,17.30
2022-09-10T15:37:36.459Z,17.20
2022-09-10T15:42:31.967Z,17.10
